Date,TemperatureHighF,TemperatureAvgF,TemperatureLowF,DewpointHighF,DewpointAvgF,DewpointLowF,HumidityHigh,HumidityAvg,HumidityLow,PressureMaxIn,PressureMinIn,WindSpeedMaxMPH,WindSpeedAvgMPH,GustSpeedMaxMPH,PrecipitationSumIn
2014-1-1,39.6,29.1,11.5,31.6,23.9,8.7,99,83,59,30.59,29.96,1,0,3,0.00
2014-1-2,50.9,30.3,13.3,35.2,22.0,10.1,96,73,46,30.57,30.16,0,0,1,0.02
2014-1-3,70.3,39.5,22.3,33.4,23.2,17.9,87,60,15,30.19,29.33,3,0,7,0.00
2014-1-4,33.6,24.4,11.5,26.2,12.6,-1.5,82,61,39,30.39,29.77,2,0,4,0.00
2014-1-5,17.8,9.4,-5.6,6.3,-1.8,-17.4,72,58,46,30.89,30.36,2,0,4,0.00
2014-1-6,39.6,12.4,-9.6,13.1,-1.8,-19.6,72,54,26,30.89,30.21,0,0,1,0.00
2014-1-7,54.5,32.2,14.7,30.0,14.9,5.8,70,53,21,30.30,29.88,0,0,1,0.00
2014-1-8,38.1,23.9,15.8,24.0,18.0,12.9,90,78,54,30.32,30.10,1,0,2,7.34
2014-1-9,54.0,28.3,10.0,29.5,20.3,6.2,90,75,32,30.24,29.65,0,0,0,0.00
2014-1-10,45.9,32.8,21.0,28.9,19.6,8.3,95,62,23,29.95,29.57,2,0,4,0.00
2014-1-11,57.7,40.4,26.1,31.1,22.9,16.1,75,52,24,30.08,29.63,1,0,3,0.00
2014-1-12,52.3,39.2,27.0,30.9,19.8,7.1,83,50,21,30.04,29.51,1,0,4,0.00
2014-1-13,54.7,38.8,18.0,26.3,18.1,7.5,76,48,22,30.13,29.76,1,0,4,0.00
2014-1-14,45.9,45.9,45.9,26.3,26.3,26.3,46,46,46,29.93,29.93,0,0,2,0.00
2014-1-15,45.9,45.9,45.9,26.3,26.3,26.3,46,46,46,29.93,29.93,0,0,2,0.00
2014-1-16,45.9,45.9,45.9,26.3,26.3,26.3,46,46,46,29.93,29.93,0,0,2,0.00
2014-1-17,45.9,45.9,45.9,26.3,26.3,26.3,46,46,46,29.93,29.93,0,0,2,0.00
2014-1-18,45.9,45.9,45.9,26.3,26.3,26.3,46,46,46,29.93,29.93,0,0,2,0.00
2014-1-19,45.9,45.9,45.9,26.3,26.3,26.3,46,46,46,29.93,29.93,0,0,2,0.00
2014-1-20,45.9,45.9,45.9,26.3,26.3,26.3,46,46,46,29.93,29.93,0,0,2,0.00
2014-1-21,45.9,45.9,45.9,26.3,26.3,26.3,46,46,46,29.93,29.93,0,0,2,0.00
2014-1-22,45.9,45.9,45.9,26.3,26.3,26.3,46,46,46,29.93,29.93,0,0,2,0.00
2014-1-23,45.9,45.9,45.9,26.3,26.3,26.3,46,46,46,29.93,29.93,0,0,2,0.00
2014-1-24,45.9,45.8,44.6,26.3,26.1,23.5,46,46,43,30.07,29.93,0,0,2,0.02
2014-1-25,44.6,44.6,44.6,23.5,23.5,23.5,43,43,43,30.07,30.07,0,0,0,0.00
2014-1-26,53.8,50.4,44.6,32.4,29.1,23.5,44,44,43,30.07,29.72,0,0,0,0.00
2014-1-27,53.8,53.8,53.8,32.4,32.4,32.4,44,44,44,29.73,29.73,0,0,0,0.00
2014-1-28,53.8,53.8,53.8,32.4,32.4,32.4,44,44,44,29.73,29.73,0,0,0,0.00
2014-1-29,53.8,53.8,53.8,32.4,32.4,32.4,44,44,44,29.73,29.73,0,0,0,0.00
2014-1-30,53.8,53.8,53.8,32.4,32.4,32.4,44,44,44,29.73,29.73,0,0,0,0.00
2014-1-31,53.8,27.9,17.1,32.4,19.8,14.6,90,77,44,30.16,29.73,0,0,0,0.02
2014-2-1,17.1,17.1,17.1,14.6,14.6,14.6,90,90,90,30.16,30.16,0,0,0,0.00
2014-2-2,17.1,17.1,17.1,14.6,14.6,14.6,90,90,90,30.16,30.16,0,0,0,0.00
2014-2-3,17.1,17.1,17.1,14.6,14.6,14.6,90,90,90,30.16,30.16,0,0,0,0.00
2014-2-4,41.3,29.2,17.1,31.5,23.1,14.6,90,64,38,30.16,29.97,1,0,0,0.00
2014-2-5,41.3,41.3,41.3,31.5,31.5,31.5,38,38,38,29.97,29.97,1,1,0,0.00
2014-2-6,41.3,20.8,0.3,31.5,9.0,-12.8,58,44,38,30.61,29.97,1,0,1,0.00
2014-2-7,28.8,7.8,0.3,11.4,-6.2,-12.8,71,51,24,30.51,30.00,0,0,1,7.42
2014-2-8,37.4,23.8,12.2,24.9,15.1,3.0,82,69,53,30.33,29.88,0,0,1,0.00
2014-2-9,18.9,11.5,8.2,14.3,4.0,1.0,82,71,60,30.54,30.32,0,0,2,0.00
2014-2-10,22.6,15.5,7.7,15.3,8.8,0.9,82,74,66,30.52,30.25,0,0,1,0.00
2014-2-11,63.9,28.8,2.1,37.2,20.4,-4.1,87,72,31,30.45,29.75,1,0,4,7.42
2014-2-12,40.8,31.0,16.3,31.5,23.1,10.4,86,73,53,30.38,29.81,1,0,4,0.00
2014-2-13,55.0,39.6,27.7,37.6,31.9,21.1,95,75,45,30.01,29.67,0,0,2,0.00
2014-2-14,45.5,36.7,28.8,33.4,29.8,25.1,99,77,52,30.14,29.87,0,0,2,0.00
2014-2-15,49.6,37.2,28.0,37.1,32.0,25.7,97,83,51,30.23,29.80,2,0,4,0.00
2014-2-16,66.4,42.7,29.7,45.8,35.5,25.1,97,77,48,30.16,29.46,2,0,7,7.44
2014-2-17,66.0,42.7,26.2,33.8,25.2,14.6,91,56,19,30.21,29.80,0,0,2,0.00
2014-2-18,56.7,39.3,28.0,31.0,25.2,16.9,88,61,22,30.15,29.73,2,0,6,0.00
2014-2-19,71.4,43.7,28.9,38.7,28.3,21.7,99,62,16,30.10,29.24,2,0,7,0.00
2014-2-20,39.7,31.0,20.3,20.2,13.8,4.1,78,51,25,30.09,29.91,1,0,4,0.00
2014-2-21,51.4,33.5,19.6,28.9,21.4,14.0,92,64,27,30.05,29.71,1,0,4,0.00
2014-2-22,49.1,31.7,19.8,30.8,24.6,17.3,99,78,42,30.22,29.80,0,0,2,0.00
2014-2-23,25.5,21.8,18.0,25.0,20.6,15.8,99,95,90,30.36,30.21,0,0,0,0.00
2014-2-24,50.0,25.9,18.7,35.8,21.8,16.5,99,85,55,30.41,29.86,2,0,6,0.07
2014-2-25,23.0,23.0,23.0,17.8,17.8,17.8,80,80,80,30.41,30.41,0,0,2,0.00
2014-2-26,58.1,26.2,11.8,26.1,16.2,6.2,81,70,25,30.41,29.86,0,0,30,7.51
2014-2-27,53.1,28.7,11.8,34.4,21.4,6.9,91,75,42,30.25,29.56,1,0,20,7.51
2014-2-28,45.3,28.0,14.7,39.8,24.4,11.8,99,86,72,30.25,29.63,1,0,2,0.00
2014-3-1,14.7,7.9,-1.5,11.8,2.1,-9.0,88,76,66,30.66,30.22,0,0,2,0.00
2014-3-2,16.3,9.6,5.4,6.1,2.5,-1.2,76,72,61,30.60,30.45,0,0,1,0.00
2014-3-3,71.1,31.0,5.2,45.2,21.1,-1.0,92,70,24,30.56,29.69,0,0,2,0.00
2014-3-4,75.6,43.6,29.8,44.2,33.9,24.1,98,73,22,30.13,29.58,0,0,2,0.00
2014-3-5,64.6,40.8,27.7,41.6,32.9,24.9,99,78,28,30.26,29.89,0,0,1,0.00
2014-3-6,74.7,49.0,28.2,44.9,32.3,21.1,93,60,15,30.15,29.53,0,0,1,0.00
2014-3-7,45.7,37.2,30.0,40.0,34.9,29.8,99,91,72,30.32,29.73,1,0,4,0.02
2014-3-8,57.6,39.7,29.8,41.2,32.2,27.5,99,78,39,30.38,30.13,0,0,1,0.02
2014-3-9,82.6,56.9,29.3,40.5,29.2,21.2,94,45,11,30.34,29.66,0,0,0,0.00
2014-3-10,78.1,47.6,34.9,32.8,29.0,16.6,75,54,12,30.04,29.41,2,0,3,7.55
2014-3-11,43.9,35.3,33.1,39.4,33.9,31.0,99,95,63,30.22,29.53,8,1,8,7.57
2014-3-12,34.5,34.5,34.5,34.0,34.0,34.0,98,98,98,30.21,30.21,1,1,3,0.00
2014-3-13,70.2,44.7,26.4,35.4,21.6,16.8,98,50,13,30.31,29.56,1,0,3,7.57
2014-3-14,70.3,44.5,28.8,29.6,24.1,16.8,86,54,13,30.15,29.67,1,0,3,7.57
2014-3-15,53.6,42.7,30.7,37.9,33.9,23.1,91,73,45,30.14,29.79,3,1,9,0.00
2014-3-16,40.3,40.3,40.3,37.9,37.9,37.9,91,91,91,30.14,30.14,1,1,4,0.00
2014-3-17,75.9,52.9,30.2,37.9,26.6,16.3,91,46,12,30.14,29.00,2,0,6,0.00
2014-3-18,55.2,55.2,55.2,32.5,32.5,32.5,42,42,42,29.25,29.25,0,0,2,0.00
2014-3-19,61.3,51.8,28.2,32.5,30.1,18.8,75,44,22,30.14,29.25,0,0,2,0.00
2014-3-20,70.5,45.6,27.0,35.1,21.6,13.7,78,46,13,30.16,29.57,0,0,2,0.00
2014-3-21,45.5,43.3,43.3,21.8,21.7,16.5,42,42,31,29.86,29.79,0,0,1,0.00
2014-3-22,43.3,43.3,43.3,21.8,21.8,21.8,42,42,42,29.86,29.86,0,0,1,0.00
2014-3-23,60.1,44.6,41.4,33.1,24.4,20.4,63,45,28,30.01,29.81,0,0,97,7.57
2014-3-24,42.1,42.1,42.1,30.4,30.4,30.4,63,63,63,30.01,30.01,0,0,0,0.00
2014-3-25,59.7,44.2,32.0,30.4,28.3,23.5,71,56,26,30.06,29.78,1,0,4,0.00
2014-3-26,82.9,53.1,23.5,44.7,25.4,16.3,93,45,11,29.87,28.98,0,0,2,0.02
2014-3-27,53.6,41.8,33.4,44.9,36.1,28.9,99,81,51,29.97,29.31,0,0,2,0.02
2014-3-28,36.7,35.7,32.4,33.4,32.2,28.8,97,87,78,30.04,29.91,0,0,2,0.00
2014-3-29,36.0,36.0,36.0,32.5,32.5,32.5,87,87,87,29.96,29.96,0,0,0,0.00
2014-3-30,73.9,60.6,32.5,37.4,24.9,16.3,87,33,12,29.96,29.46,0,0,1,0.00
2014-3-31,73.8,73.8,73.8,23.2,23.2,23.2,15,15,15,29.47,29.47,0,0,0,0.00
2014-4-1,73.8,61.8,42.8,27.5,24.1,23.2,54,26,15,29.92,29.47,0,0,2,0.14
2014-4-2,53.6,53.6,53.6,24.5,24.5,24.5,32,32,32,29.65,29.65,0,0,0,0.00
2014-4-3,53.6,43.1,32.7,34.8,29.1,24.5,99,64,32,29.94,29.65,0,0,2,7.94
2014-4-4,63.1,47.4,38.5,33.5,27.1,20.9,81,47,21,30.01,29.80,0,0,2,7.94
2014-4-5,62.8,47.6,29.3,39.8,30.7,23.2,92,58,22,30.01,29.65,1,0,2,7.94
2014-4-6,43.0,41.2,39.4,31.9,31.1,30.1,69,67,66,29.91,29.87,0,0,0,0.00
2014-4-8,41.7,41.7,41.7,35.7,35.7,35.7,79,79,79,29.91,29.91,0,0,1,0.00
2014-4-9,86.4,47.6,41.7,35.7,33.6,19.9,79,65,12,29.91,29.44,0,0,1,0.00
2014-4-10,80.6,54.7,37.6,57.9,35.8,28.2,87,52,27,30.09,29.66,14,0,16,7.94
2014-4-11,81.9,58.9,36.0,43.9,34.6,23.5,94,49,15,30.10,29.47,0,0,4,0.00
2014-4-12,79.7,60.8,39.6,37.9,34.4,29.6,76,42,17,29.75,29.35,0,0,2,0.00
2014-4-13,53.2,34.6,25.2,36.3,29.7,24.2,99,83,38,30.23,29.65,1,0,2,0.00
2014-4-14,41.0,30.4,25.7,36.4,23.9,18.4,97,79,44,30.38,30.21,0,0,2,0.02
2014-4-15,63.3,41.2,20.5,42.9,30.5,15.7,85,67,37,30.32,29.55,0,0,3,0.00
2014-4-16,57.6,46.4,33.3,38.5,35.0,30.6,98,66,41,30.26,29.60,2,0,7,0.02
2014-4-17,64.2,42.8,29.8,42.8,36.0,29.4,99,82,33,30.31,29.87,0,0,2,0.00
2014-4-18,81.7,58.7,35.6,46.9,38.6,25.5,98,57,13,30.10,29.55,0,0,2,0.00
2014-4-19,70.3,56.1,44.8,47.4,43.6,38.1,95,66,33,30.04,29.76,0,0,2,0.00
2014-4-20,80.6,59.2,38.5,53.7,46.1,38.0,99,67,27,30.06,29.65,0,0,1,0.00
2014-4-21,76.3,57.2,41.5,46.5,31.9,21.7,81,45,15,30.25,29.91,0,0,2,0.00
2014-4-22,83.7,57.5,38.3,45.8,38.6,34.3,88,55,21,30.18,29.40,1,0,5,0.00
2014-4-23,77.4,62.8,49.1,39.0,31.7,20.4,68,34,19,29.78,29.33,2,0,6,7.98
2014-4-24,68.4,51.8,39.2,38.7,25.5,14.9,76,41,15,29.99,29.71,1,0,3,0.00
2014-4-25,78.4,67.7,52.3,33.6,27.0,19.3,48,24,13,29.59,29.44,0,0,2,0.00
2014-4-26,84.2,63.0,38.1,40.4,30.9,18.3,76,36,11,29.60,28.99,12,0,13,7.98
2014-4-27,63.7,49.8,36.9,47.6,41.8,31.2,99,75,42,29.58,29.01,4,1,8,0.30
2014-4-28,54.3,46.7,39.2,39.2,33.8,24.2,99,64,32,29.81,29.50,5,0,59,8.39
2014-4-29,45.1,41.3,35.2,38.3,34.2,31.2,96,77,60,30.30,29.81,4,1,11,0.42
2014-4-30,56.1,40.9,32.4,33.3,28.7,22.1,98,66,29,30.34,30.04,3,1,99,8.81
2014-5-1,39.2,36.9,34.2,32.4,31.0,28.8,84,79,74,30.30,30.22,0,0,3,8.81
2014-5-2,37.8,37.8,37.8,31.5,31.5,31.5,78,78,78,30.24,30.24,0,0,0,0.00
2014-5-3,92.8,55.3,37.8,45.5,35.2,24.4,78,55,11,30.24,29.46,0,0,2,0.01
2014-5-4,79.7,59.5,47.1,48.5,42.7,34.9,88,55,32,29.80,29.50,83,2,97,8.82
2014-5-5,81.3,60.6,41.2,57.7,46.6,40.9,99,65,30,29.91,29.45,11,0,14,8.82
2014-5-6,81.9,63.8,49.3,53.4,50.1,46.4,93,65,32,29.65,29.25,0,0,1,0.00
2014-5-7,72.0,59.8,50.2,54.7,49.7,45.8,95,72,45,29.59,29.34,1,0,97,8.89
2014-5-8,54.3,39.9,32.9,49.3,38.9,32.7,99,96,83,29.91,29.49,1,0,3,0.43
2014-5-9,78.3,49.4,41.5,48.2,41.2,34.2,95,79,26,29.88,29.51,0,0,1,0.02
2014-5-10,78.1,59.4,39.4,51.2,42.0,29.6,99,61,19,29.87,29.47,0,0,29,9.43
2014-5-11,48.4,43.4,37.2,47.8,41.6,31.5,99,90,38,30.00,29.74,2,0,4,0.07
2014-5-12,41.3,41.3,41.3,31.5,31.5,31.5,38,38,38,29.97,29.97,1,1,0,0.00
2014-5-13,41.3,41.3,41.3,31.5,31.5,31.5,38,38,38,29.97,29.97,1,1,0,0.00
2014-6-24,88.3,70.2,55.9,60.1,56.8,52.7,91,67,37,0.00,40.00,8,4,8,0.19
2014-6-25,91.0,73.0,58.3,62.9,58.1,52.9,93,64,36,0.00,40.00,22,7,22,0.40
2014-6-26,89.8,73.3,55.9,68.3,60.7,52.4,88,67,47,0.00,40.00,16,7,16,0.37
2014-6-27,89.4,67.7,53.8,67.3,57.7,51.2,91,73,48,0.00,40.00,20,6,20,1.20
2014-6-28,87.6,70.2,52.5,56.9,53.0,49.9,92,60,30,0.00,40.00,16,5,16,0.02
2014-6-29,97.5,76.7,57.7,65.5,59.3,53.8,92,60,26,0.00,40.00,8,2,8,0.00
2014-6-30,87.6,71.7,61.3,64.5,56.1,50.1,94,62,31,26.12,26.10,21,5,21,0.00
2014-7-13,90.9,73.2,61.0,71.4,64.8,60.4,99,79,42,30.07,29.85,0,0,0,0.52
2014-7-14,83.1,69.7,55.6,65.3,60.4,53.5,99,75,42,30.24,29.93,0,0,0,0.00
2014-7-15,57.0,56.3,55.4,54.9,54.8,53.3,95,95,90,30.24,30.20,0,0,0,0.00
2014-7-16,56.3,56.3,56.3,54.9,54.9,54.9,95,95,95,30.20,30.20,0,0,0,0.00
2014-7-17,56.3,56.3,56.3,54.9,54.9,54.9,95,95,95,30.20,30.20,0,0,0,0.00
2014-7-18,56.3,56.3,56.3,54.9,54.9,54.9,95,95,95,30.20,30.20,0,0,0,0.00
2014-7-19,56.3,56.3,56.3,54.9,54.9,54.9,95,95,95,30.20,30.20,0,0,0,0.00
2014-7-20,56.3,42.0,41.3,54.9,32.6,31.5,95,41,38,30.20,29.97,1,1,0,0.00
2014-7-21,41.3,41.3,41.3,31.5,31.5,31.5,38,38,38,29.97,29.97,1,1,0,0.00
2014-7-22,41.3,41.3,41.3,31.5,31.5,31.5,38,38,38,29.97,29.97,1,1,0,0.00
2014-7-23,41.3,41.3,41.3,31.5,31.5,31.5,38,38,38,29.97,29.97,1,1,0,0.00
2014-7-24,41.3,41.3,41.3,31.5,31.5,31.5,38,38,38,29.97,29.97,1,1,0,0.00
2014-7-25,41.3,41.3,41.3,31.5,31.5,31.5,38,38,38,29.97,29.97,1,1,0,0.00
2014-7-26,41.3,41.3,41.3,31.5,31.5,31.5,38,38,38,29.97,29.97,1,1,0,0.00
2014-7-27,41.3,41.3,41.3,31.5,31.5,31.5,38,38,38,29.97,29.97,1,1,0,0.00
2014-7-28,41.3,41.3,41.3,31.5,31.5,31.5,38,38,38,29.97,29.97,1,1,0,0.00
2014-7-29,41.3,41.3,41.3,31.5,31.5,31.5,38,38,38,29.97,29.97,1,1,0,0.00
2014-7-30,41.3,41.3,41.3,31.5,31.5,31.5,38,38,38,29.97,29.97,1,1,0,0.00
2014-7-31,41.3,41.3,41.3,31.5,31.5,31.5,38,38,38,29.97,29.97,1,1,0,0.00
2014-8-1,41.3,41.3,41.3,31.5,31.5,31.5,38,38,38,29.97,29.97,1,1,0,0.00
2014-8-2,41.3,41.3,41.3,31.5,31.5,31.5,38,38,38,29.97,29.97,1,1,0,0.00
2014-8-3,41.3,41.3,41.3,31.5,31.5,31.5,38,38,38,29.97,29.97,1,1,0,0.00
2014-8-4,41.3,41.3,41.3,31.5,31.5,31.5,38,38,38,29.97,29.97,1,1,0,0.00
2014-8-5,41.3,41.3,41.3,31.5,31.5,31.5,38,38,38,29.97,29.97,1,1,0,0.00
2014-8-6,41.3,41.3,41.3,31.5,31.5,31.5,38,38,38,29.97,29.97,1,1,0,0.00
2014-8-7,41.3,41.3,41.3,31.5,31.5,31.5,38,38,38,29.97,29.97,1,1,0,0.00
2014-8-8,41.3,41.3,41.3,31.5,31.5,31.5,38,38,38,29.97,29.97,1,1,0,0.00
2014-8-9,41.3,41.3,41.3,31.5,31.5,31.5,38,38,38,29.97,29.97,1,1,0,0.00
2014-8-10,41.3,41.3,41.3,31.5,31.5,31.5,38,38,38,29.97,29.97,1,1,0,0.00
2014-8-11,41.3,41.3,41.3,31.5,31.5,31.5,38,38,38,29.97,29.97,1,1,0,0.00
2014-8-12,41.3,41.3,41.3,31.5,31.5,31.5,38,38,38,29.97,29.97,1,1,0,0.00
2014-8-13,41.3,41.3,41.3,31.5,31.5,31.5,38,38,38,29.97,29.97,1,1,0,0.00
2014-8-14,41.3,41.3,41.3,31.5,31.5,31.5,38,38,38,29.97,29.97,1,1,0,0.00
2014-8-15,41.3,41.3,41.3,31.5,31.5,31.5,38,38,38,29.97,29.97,1,1,0,0.00